sensor_id;sensor_type;location;lat;lon;timestamp;pressure;altitude;pressure_sealevel;temperature;humidity
76694;BME280;69667;52.136;5.424;2024-02-23T00:02:10;98736.63;;;4.14;100.00
76694;BME280;69667;52.136;5.424;2024-02-23T00:04:39;98750.78;;;4.14;100.00
76694;BME280;69667;52.136;5.424;2024-02-23T00:07:08;98744.63;;;4.14;100.00
76694;BME280;69667;52.136;5.424;2024-02-23T00:09:37;98746.66;;;4.21;100.00
76694;BME280;69667;52.136;5.424;2024-02-23T00:12:05;98749.91;;;4.25;100.00
76694;BME280;69667;52.136;5.424;2024-02-23T00:14:35;98755.72;;;4.30;100.00
76694;BME280;69667;52.136;5.424;2024-02-23T00:17:04;98757.88;;;4.36;100.00
76694;BME280;69667;52.136;5.424;2024-02-23T00:19:32;98761.72;;;4.43;100.00
76694;BME280;69667;52.136;5.424;2024-02-23T00:22:00;98758.81;;;4.46;100.00
76694;BME280;69667;52.136;5.424;2024-02-23T00:24:31;98762.91;;;4.50;100.00
76694;BME280;69667;52.136;5.424;2024-02-23T00:26:59;98763.78;;;4.50;100.00
76694;BME280;69667;52.136;5.424;2024-02-23T00:29:27;98752.38;;;4.48;100.00
76694;BME280;69667;52.136;5.424;2024-02-23T00:31:56;98776.28;;;4.50;100.00
76694;BME280;69667;52.136;5.424;2024-02-23T00:34:24;98772.25;;;4.55;100.00
76694;BME280;69667;52.136;5.424;2024-02-23T00:36:52;98774.53;;;4.60;100.00
76694;BME280;69667;52.136;5.424;2024-02-23T00:39:21;98778.88;;;4.61;100.00
76694;BME280;69667;52.136;5.424;2024-02-23T00:41:49;98777.06;;;4.61;100.00
76694;BME280;69667;52.136;5.424;2024-02-23T00:44:17;98782.41;;;4.61;100.00
76694;BME280;69667;52.136;5.424;2024-02-23T00:46:45;98775.25;;;4.62;100.00
76694;BME280;69667;52.136;5.424;2024-02-23T00:49:14;98791.75;;;4.67;100.00
76694;BME280;69667;52.136;5.424;2024-02-23T00:51:43;98795.00;;;4.70;100.00
76694;BME280;69667;52.136;5.424;2024-02-23T00:54:11;98791.22;;;4.73;100.00
76694;BME280;69667;52.136;5.424;2024-02-23T00:56:39;98796.16;;;4.77;100.00
76694;BME280;69667;52.136;5.424;2024-02-23T00:59:18;98810.38;;;4.78;100.00
76694;BME280;69667;52.136;5.424;2024-02-23T01:01:46;98795.22;;;4.78;100.00
76694;BME280;69667;52.136;5.424;2024-02-23T01:04:14;98813.78;;;4.80;100.00
76694;BME280;69667;52.136;5.424;2024-02-23T01:06:42;98805.03;;;4.78;100.00
76694;BME280;69667;52.136;5.424;2024-02-23T01:09:11;98821.47;;;4.73;100.00
76694;BME280;69667;52.136;5.424;2024-02-23T01:11:39;98833.38;;;4.69;100.00
76694;BME280;69667;52.136;5.424;2024-02-23T01:14:07;98832.66;;;4.67;100.00
76694;BME280;69667;52.136;5.424;2024-02-23T01:16:36;98828.47;;;4.54;100.00
76694;BME280;69667;52.136;5.424;2024-02-23T01:19:04;98848.66;;;4.36;100.00
76694;BME280;69667;52.136;5.424;2024-02-23T01:21:33;98854.91;;;4.25;100.00
76694;BME280;69667;52.136;5.424;2024-02-23T01:24:01;98850.53;;;4.24;100.00
76694;BME280;69667;52.136;5.424;2024-02-23T01:26:29;98852.59;;;4.21;100.00
76694;BME280;69667;52.136;5.424;2024-02-23T01:28:57;98848.47;;;4.17;100.00
76694;BME280;69667;52.136;5.424;2024-02-23T01:31:26;98853.81;;;4.06;100.00
76694;BME280;69667;52.136;5.424;2024-02-23T01:33:54;98855.78;;;4.04;100.00
76694;BME280;69667;52.136;5.424;2024-02-23T01:36:22;98876.75;;;4.08;100.00
76694;BME280;69667;52.136;5.424;2024-02-23T01:38:50;98886.13;;;4.14;100.00
76694;BME280;69667;52.136;5.424;2024-02-23T01:41:19;98880.91;;;4.12;100.00
76694;BME280;69667;52.136;5.424;2024-02-23T01:43:47;98878.94;;;4.14;100.00
76694;BME280;69667;52.136;5.424;2024-02-23T01:46:18;98861.09;;;4.15;100.00
76694;BME280;69667;52.136;5.424;2024-02-23T01:48:46;98882.22;;;4.18;100.00
76694;BME280;69667;52.136;5.424;2024-02-23T01:51:15;98884.88;;;4.18;100.00
76694;BME280;69667;52.136;5.424;2024-02-23T01:53:44;98901.50;;;4.21;100.00
76694;BME280;69667;52.136;5.424;2024-02-23T01:56:14;98911.72;;;4.27;100.00
76694;BME280;69667;52.136;5.424;2024-02-23T01:58:47;98904.19;;;4.32;100.00
76694;BME280;69667;52.136;5.424;2024-02-23T02:01:15;98905.59;;;4.36;100.00
76694;BME280;69667;52.136;5.424;2024-02-23T02:03:44;98902.69;;;4.39;100.00
76694;BME280;69667;52.136;5.424;2024-02-23T02:06:12;98911.28;;;4.43;100.00
76694;BME280;69667;52.136;5.424;2024-02-23T02:08:41;98911.41;;;4.41;100.00
76694;BME280;69667;52.136;5.424;2024-02-23T02:11:09;98918.47;;;4.42;100.00
76694;BME280;69667;52.136;5.424;2024-02-23T02:13:38;98928.44;;;4.40;100.00
76694;BME280;69667;52.136;5.424;2024-02-23T02:16:06;98921.25;;;4.41;100.00
76694;BME280;69667;52.136;5.424;2024-02-23T02:18:35;98916.16;;;4.38;100.00
76694;BME280;69667;52.136;5.424;2024-02-23T02:21:03;98913.88;;;4.33;100.00
76694;BME280;69667;52.136;5.424;2024-02-23T02:23:32;98927.22;;;4.33;100.00
76694;BME280;69667;52.136;5.424;2024-02-23T02:26:00;98916.91;;;4.29;100.00
76694;BME280;69667;52.136;5.424;2024-02-23T02:28:28;98915.31;;;4.26;100.00
76694;BME280;69667;52.136;5.424;2024-02-23T02:30:56;98918.38;;;4.22;100.00
76694;BME280;69667;52.136;5.424;2024-02-23T02:33:25;98919.56;;;4.18;100.00
76694;BME280;69667;52.136;5.424;2024-02-23T02:35:53;98923.22;;;4.17;100.00
76694;BME280;69667;52.136;5.424;2024-02-23T02:38:21;98915.22;;;4.17;100.00
76694;BME280;69667;52.136;5.424;2024-02-23T02:40:50;98917.28;;;4.13;100.00
76694;BME280;69667;52.136;5.424;2024-02-23T02:43:19;98930.41;;;4.05;100.00
76694;BME280;69667;52.136;5.424;2024-02-23T02:45:47;98919.97;;;4.02;100.00
76694;BME280;69667;52.136;5.424;2024-02-23T02:48:17;98927.25;;;4.00;100.00
76694;BME280;69667;52.136;5.424;2024-02-23T02:50:46;98943.25;;;4.00;100.00
76694;BME280;69667;52.136;5.424;2024-02-23T02:53:18;98928.06;;;4.01;100.00
76694;BME280;69667;52.136;5.424;2024-02-23T02:55:46;98937.19;;;3.98;100.00
76694;BME280;69667;52.136;5.424;2024-02-23T02:58:14;98937.91;;;4.00;100.00
76694;BME280;69667;52.136;5.424;2024-02-23T03:00:43;98929.06;;;4.00;100.00
76694;BME280;69667;52.136;5.424;2024-02-23T03:03:11;98940.09;;;3.95;100.00
76694;BME280;69667;52.136;5.424;2024-02-23T03:05:40;98934.88;;;3.94;100.00
76694;BME280;69667;52.136;5.424;2024-02-23T03:08:08;98936.34;;;3.98;100.00
76694;BME280;69667;52.136;5.424;2024-02-23T03:10:37;98931.13;;;3.96;100.00
76694;BME280;69667;52.136;5.424;2024-02-23T03:13:05;98944.47;;;3.96;100.00
76694;BME280;69667;52.136;5.424;2024-02-23T03:15:35;98944.47;;;3.96;100.00
76694;BME280;69667;52.136;5.424;2024-02-23T03:18:03;98954.88;;;3.99;100.00
76694;BME280;69667;52.136;5.424;2024-02-23T03:20:32;98956.59;;;4.00;100.00
76694;BME280;69667;52.136;5.424;2024-02-23T03:23:00;98958.41;;;4.00;100.00
76694;BME280;69667;52.136;5.424;2024-02-23T03:25:31;98958.06;;;3.93;100.00
76694;BME280;69667;52.136;5.424;2024-02-23T03:27:59;98947.75;;;3.88;100.00
76694;BME280;69667;52.136;5.424;2024-02-23T03:30:27;98954.16;;;3.86;100.00
76694;BME280;69667;52.136;5.424;2024-02-23T03:32:56;98954.16;;;3.86;100.00
76694;BME280;69667;52.136;5.424;2024-02-23T03:35:24;98960.34;;;3.86;100.00
76694;BME280;69667;52.136;5.424;2024-02-23T03:37:53;98958.66;;;3.85;100.00
76694;BME280;69667;52.136;5.424;2024-02-23T03:40:30;98960.72;;;3.82;100.00
76694;BME280;69667;52.136;5.424;2024-02-23T03:42:58;98969.06;;;3.77;100.00
76694;BME280;69667;52.136;5.424;2024-02-23T03:45:27;98975.75;;;3.72;100.00
76694;BME280;69667;52.136;5.424;2024-02-23T03:47:56;98974.25;;;3.68;100.00
76694;BME280;69667;52.136;5.424;2024-02-23T03:50:25;98984.19;;;3.66;100.00
76694;BME280;69667;52.136;5.424;2024-02-23T03:52:53;98984.94;;;3.68;100.00
76694;BME280;69667;52.136;5.424;2024-02-23T03:55:22;98987.13;;;3.74;100.00
76694;BME280;69667;52.136;5.424;2024-02-23T03:57:50;98976.56;;;3.72;100.00
76694;BME280;69667;52.136;5.424;2024-02-23T04:00:18;98994.53;;;3.70;100.00
76694;BME280;69667;52.136;5.424;2024-02-23T04:02:48;98987.25;;;3.72;100.00
76694;BME280;69667;52.136;5.424;2024-02-23T04:05:16;98987.38;;;3.71;100.00
76694;BME280;69667;52.136;5.424;2024-02-23T04:07:45;98982.28;;;3.68;100.00
76694;BME280;69667;52.136;5.424;2024-02-23T04:10:13;98997.66;;;3.64;100.00
76694;BME280;69667;52.136;5.424;2024-02-23T04:12:43;98984.69;;;3.60;100.00
76694;BME280;69667;52.136;5.424;2024-02-23T04:15:12;98999.19;;;3.56;100.00
76694;BME280;69667;52.136;5.424;2024-02-23T04:17:42;98996.03;;;3.51;100.00
76694;BME280;69667;52.136;5.424;2024-02-23T04:20:10;98989.97;;;3.49;100.00
76694;BME280;69667;52.136;5.424;2024-02-23T04:22:46;99002.22;;;3.51;100.00
76694;BME280;69667;52.136;5.424;2024-02-23T04:25:15;99000.31;;;3.53;100.00
76694;BME280;69667;52.136;5.424;2024-02-23T04:27:43;98996.16;;;3.49;100.00
76694;BME280;69667;52.136;5.424;2024-02-23T04:30:12;99006.09;;;3.47;100.00
76694;BME280;69667;52.136;5.424;2024-02-23T04:32:40;99011.22;;;3.50;100.00
76694;BME280;69667;52.136;5.424;2024-02-23T04:35:09;99004.28;;;3.48;100.00
76694;BME280;69667;52.136;5.424;2024-02-23T04:37:38;99004.28;;;3.48;100.00
76694;BME280;69667;52.136;5.424;2024-02-23T04:40:07;99008.25;;;3.42;100.00
76694;BME280;69667;52.136;5.424;2024-02-23T04:42:36;99009.22;;;3.41;100.00
76694;BME280;69667;52.136;5.424;2024-02-23T04:45:05;99020.13;;;3.38;100.00
76694;BME280;69667;52.136;5.424;2024-02-23T04:47:34;99022.16;;;3.35;100.00
76694;BME280;69667;52.136;5.424;2024-02-23T04:50:03;99018.22;;;3.40;100.00
76694;BME280;69667;52.136;5.424;2024-02-23T04:52:32;99028.50;;;3.45;100.00
76694;BME280;69667;52.136;5.424;2024-02-23T04:55:00;99026.22;;;3.51;100.00
76694;BME280;69667;52.136;5.424;2024-02-23T04:57:28;99026.72;;;3.56;100.00
76694;BME280;69667;52.136;5.424;2024-02-23T04:59:58;99028.22;;;3.60;100.00
76694;BME280;69667;52.136;5.424;2024-02-23T05:02:26;99031.38;;;3.65;100.00
76694;BME280;69667;52.136;5.424;2024-02-23T05:05:04;99035.50;;;3.69;100.00
76694;BME280;69667;52.136;5.424;2024-02-23T05:07:34;99031.75;;;3.72;100.00
76694;BME280;69667;52.136;5.424;2024-02-23T05:10:02;99030.66;;;3.74;100.00
76694;BME280;69667;52.136;5.424;2024-02-23T05:12:31;99027.88;;;3.76;100.00
76694;BME280;69667;52.136;5.424;2024-02-23T05:14:59;99029.47;;;3.78;100.00
76694;BME280;69667;52.136;5.424;2024-02-23T05:17:27;99024.88;;;3.80;100.00
76694;BME280;69667;52.136;5.424;2024-02-23T05:19:56;99025.59;;;3.82;100.00
76694;BME280;69667;52.136;5.424;2024-02-23T05:22:25;99024.50;;;3.85;100.00
76694;BME280;69667;52.136;5.424;2024-02-23T05:24:53;99027.06;;;3.86;100.00
76694;BME280;69667;52.136;5.424;2024-02-23T05:27:21;99027.06;;;3.86;100.00
76694;BME280;69667;52.136;5.424;2024-02-23T05:29:49;99028.63;;;3.89;100.00
76694;BME280;69667;52.136;5.424;2024-02-23T05:32:18;99025.84;;;3.90;100.00
76694;BME280;69667;52.136;5.424;2024-02-23T05:34:48;99028.41;;;3.92;100.00
76694;BME280;69667;52.136;5.424;2024-02-23T05:37:19;99040.66;;;3.95;100.00
76694;BME280;69667;52.136;5.424;2024-02-23T05:40:13;99027.19;;;3.96;100.00
76694;BME280;69667;52.136;5.424;2024-02-23T05:42:43;99023.56;;;3.97;100.00
76694;BME280;69667;52.136;5.424;2024-02-23T05:45:11;99018.13;;;3.99;100.00
76694;BME280;69667;52.136;5.424;2024-02-23T05:47:40;99030.47;;;4.00;100.00
76694;BME280;69667;52.136;5.424;2024-02-23T05:50:14;99028.78;;;3.99;100.00
76694;BME280;69667;52.136;5.424;2024-02-23T05:52:43;99031.47;;;3.99;100.00
76694;BME280;69667;52.136;5.424;2024-02-23T05:55:11;99030.72;;;3.97;100.00
76694;BME280;69667;52.136;5.424;2024-02-23T05:57:40;99028.06;;;3.97;100.00
76694;BME280;69667;52.136;5.424;2024-02-23T06:00:10;99027.06;;;3.98;100.00
76694;BME280;69667;52.136;5.424;2024-02-23T06:02:42;99028.66;;;4.00;100.00
76694;BME280;69667;52.136;5.424;2024-02-23T06:05:12;99029.28;;;4.04;100.00
76694;BME280;69667;52.136;5.424;2024-02-23T06:07:40;99029.91;;;4.07;100.00
76694;BME280;69667;52.136;5.424;2024-02-23T06:10:09;99023.47;;;4.10;100.00
76694;BME280;69667;52.136;5.424;2024-02-23T06:12:37;99024.19;;;4.12;100.00
76694;BME280;69667;52.136;5.424;2024-02-23T06:15:14;99019.72;;;4.12;100.00
76694;BME280;69667;52.136;5.424;2024-02-23T06:17:42;99040.81;;;4.15;100.00
76694;BME280;69667;52.136;5.424;2024-02-23T06:20:12;99032.69;;;4.17;100.00
76694;BME280;69667;52.136;5.424;2024-02-23T06:22:41;99035.25;;;4.18;100.00
76694;BME280;69667;52.136;5.424;2024-02-23T06:25:09;99034.38;;;4.18;100.00
76694;BME280;69667;52.136;5.424;2024-02-23T06:27:39;99025.28;;;4.20;100.00
76694;BME280;69667;52.136;5.424;2024-02-23T06:30:08;99042.88;;;4.23;100.00
76694;BME280;69667;52.136;5.424;2024-02-23T06:32:38;99030.25;;;4.25;100.00
76694;BME280;69667;52.136;5.424;2024-02-23T06:35:08;99040.09;;;4.24;100.00
76694;BME280;69667;52.136;5.424;2024-02-23T06:37:40;99035.34;;;4.28;100.00
76694;BME280;69667;52.136;5.424;2024-02-23T06:40:09;99044.84;;;4.32;100.00
76694;BME280;69667;52.136;5.424;2024-02-23T06:42:37;99043.72;;;4.34;100.00
76694;BME280;69667;52.136;5.424;2024-02-23T06:45:06;99050.56;;;4.38;100.00
76694;BME280;69667;52.136;5.424;2024-02-23T06:47:35;99044.00;;;4.42;100.00
76694;BME280;69667;52.136;5.424;2024-02-23T06:52:55;99048.13;;;4.46;100.00
76694;BME280;69667;52.136;5.424;2024-02-23T06:55:25;99045.19;;;4.49;100.00
76694;BME280;69667;52.136;5.424;2024-02-23T06:57:55;99054.81;;;4.52;100.00
76694;BME280;69667;52.136;5.424;2024-02-23T07:00:26;99036.84;;;4.54;100.00
76694;BME280;69667;52.136;5.424;2024-02-23T07:02:55;99035.84;;;4.55;100.00
76694;BME280;69667;52.136;5.424;2024-02-23T07:05:26;99037.53;;;4.56;100.00
76694;BME280;69667;52.136;5.424;2024-02-23T07:07:55;99040.94;;;4.58;100.00
76694;BME280;69667;52.136;5.424;2024-02-23T07:10:24;99047.16;;;4.58;100.00
76694;BME280;69667;52.136;5.424;2024-02-23T07:12:53;99043.63;;;4.58;100.00
76694;BME280;69667;52.136;5.424;2024-02-23T07:15:23;99044.34;;;4.60;100.00
76694;BME280;69667;52.136;5.424;2024-02-23T07:17:53;99047.75;;;4.62;100.00
76694;BME280;69667;52.136;5.424;2024-02-23T07:20:22;99046.66;;;4.64;100.00
76694;BME280;69667;52.136;5.424;2024-02-23T07:22:50;99048.97;;;4.69;100.00
76694;BME280;69667;52.136;5.424;2024-02-23T07:28:04;99042.88;;;4.78;100.00
76694;BME280;69667;52.136;5.424;2024-02-23T07:30:34;99044.22;;;4.83;100.00
76694;BME280;69667;52.136;5.424;2024-02-23T07:33:03;99047.97;;;4.92;100.00
76694;BME280;69667;52.136;5.424;2024-02-23T07:35:31;99045.16;;;4.93;100.00
76694;BME280;69667;52.136;5.424;2024-02-23T07:38:00;99040.69;;;4.94;100.00
76694;BME280;69667;52.136;5.424;2024-02-23T07:40:28;99035.34;;;4.94;100.00
76694;BME280;69667;52.136;5.424;2024-02-23T07:42:59;99042.97;;;4.98;100.00
76694;BME280;69667;52.136;5.424;2024-02-23T07:45:27;99036.03;;;5.07;100.00
76694;BME280;69667;52.136;5.424;2024-02-23T07:47:55;99029.09;;;5.15;100.00
76694;BME280;69667;52.136;5.424;2024-02-23T07:50:24;99027.69;;;5.32;100.00
76694;BME280;69667;52.136;5.424;2024-02-23T07:52:53;99017.94;;;5.42;100.00
76694;BME280;69667;52.136;5.424;2024-02-23T07:55:22;99016.53;;;5.48;100.00
76694;BME280;69667;52.136;5.424;2024-02-23T07:57:51;99013.88;;;5.48;100.00
76694;BME280;69667;52.136;5.424;2024-02-23T08:00:19;99012.31;;;5.45;100.00
76694;BME280;69667;52.136;5.424;2024-02-23T08:03:00;99005.78;;;5.38;100.00
76694;BME280;69667;52.136;5.424;2024-02-23T08:05:28;99008.72;;;5.35;100.00
76694;BME280;69667;52.136;5.424;2024-02-23T08:11:21;99002.63;;;5.33;100.00
76694;BME280;69667;52.136;5.424;2024-02-23T08:13:50;99017.00;;;5.32;100.00
76694;BME280;69667;52.136;5.424;2024-02-23T08:16:19;98991.66;;;5.36;100.00
76694;BME280;69667;52.136;5.424;2024-02-23T08:18:48;99000.63;;;5.46;100.00
76694;BME280;69667;52.136;5.424;2024-02-23T08:21:17;99013.50;;;5.52;100.00
76694;BME280;69667;52.136;5.424;2024-02-23T08:23:47;99003.25;;;5.57;100.00
76694;BME280;69667;52.136;5.424;2024-02-23T08:26:15;99008.84;;;5.54;100.00
76694;BME280;69667;52.136;5.424;2024-02-23T08:29:00;99004.16;;;5.47;100.00
76694;BME280;69667;52.136;5.424;2024-02-23T08:31:28;99005.97;;;5.46;100.00
76694;BME280;69667;52.136;5.424;2024-02-23T08:33:58;99004.41;;;5.44;100.00
76694;BME280;69667;52.136;5.424;2024-02-23T08:36:28;99007.34;;;5.41;100.00
76694;BME280;69667;52.136;5.424;2024-02-23T08:38:57;99013.78;;;5.38;100.00
76694;BME280;69667;52.136;5.424;2024-02-23T08:41:28;98997.88;;;5.37;100.00
76694;BME280;69667;52.136;5.424;2024-02-23T08:44:14;98994.34;;;5.36;100.00
76694;BME280;69667;52.136;5.424;2024-02-23T08:46:51;98987.91;;;5.39;100.00
76694;BME280;69667;52.136;5.424;2024-02-23T08:49:22;98994.22;;;5.38;100.00
76694;BME280;69667;52.136;5.424;2024-02-23T08:51:51;98979.28;;;5.35;100.00
76694;BME280;69667;52.136;5.424;2024-02-23T08:54:21;98985.59;;;5.34;100.00
76694;BME280;69667;52.136;5.424;2024-02-23T08:57:04;98987.56;;;5.32;100.00
76694;BME280;69667;52.136;5.424;2024-02-23T08:59:34;98987.09;;;5.27;100.00
76694;BME280;69667;52.136;5.424;2024-02-23T09:02:03;98991.72;;;5.25;100.00
76694;BME280;69667;52.136;5.424;2024-02-23T09:04:38;98991.84;;;5.24;100.00
76694;BME280;69667;52.136;5.424;2024-02-23T09:07:07;98998.16;;;5.22;100.00
76694;BME280;69667;52.136;5.424;2024-02-23T09:09:36;98987.47;;;5.22;100.00
76694;BME280;69667;52.136;5.424;2024-02-23T09:12:05;99011.31;;;5.26;100.00
76694;BME280;69667;52.136;5.424;2024-02-23T09:14:38;99007.38;;;5.30;100.00
76694;BME280;69667;52.136;5.424;2024-02-23T09:17:10;99001.78;;;5.33;100.00
76694;BME280;69667;52.136;5.424;2024-02-23T09:19:45;99013.72;;;5.29;100.00
76694;BME280;69667;52.136;5.424;2024-02-23T09:22:13;99018.22;;;5.28;100.00
76694;BME280;69667;52.136;5.424;2024-02-23T09:24:44;99011.03;;;5.29;100.00
76694;BME280;69667;52.136;5.424;2024-02-23T09:27:12;98988.66;;;5.30;100.00
76694;BME280;69667;52.136;5.424;2024-02-23T09:29:41;98998.72;;;5.37;100.00
76694;BME280;69667;52.136;5.424;2024-02-23T09:32:15;99013.28;;;5.44;100.00
76694;BME280;69667;52.136;5.424;2024-02-23T09:34:43;99004.03;;;5.48;100.00
76694;BME280;69667;52.136;5.424;2024-02-23T09:37:11;99002.06;;;5.50;100.00
76694;BME280;69667;52.136;5.424;2024-02-23T09:39:39;99011.06;;;5.49;100.00
76694;BME280;69667;52.136;5.424;2024-02-23T09:42:10;99021.94;;;5.37;100.00
76694;BME280;69667;52.136;5.424;2024-02-23T09:44:39;99014.53;;;5.29;100.00
76694;BME280;69667;52.136;5.424;2024-02-23T09:47:11;99017.47;;;5.26;100.00
76694;BME280;69667;52.136;5.424;2024-02-23T09:49:42;99030.59;;;5.29;100.00
76694;BME280;69667;52.136;5.424;2024-02-23T09:52:19;99021.34;;;5.33;100.00
76694;BME280;69667;52.136;5.424;2024-02-23T09:54:51;99034.72;;;5.33;100.00
76694;BME280;69667;52.136;5.424;2024-02-23T09:57:21;99041.06;;;5.32;100.00
76694;BME280;69667;52.136;5.424;2024-02-23T09:59:52;99048.69;;;5.37;100.00
76694;BME280;69667;52.136;5.424;2024-02-23T10:02:20;99043.69;;;5.43;100.00
76694;BME280;69667;52.136;5.424;2024-02-23T10:04:51;99034.00;;;5.63;100.00
76694;BME280;69667;52.136;5.424;2024-02-23T10:07:23;99026.41;;;5.99;100.00
76694;BME280;69667;52.136;5.424;2024-02-23T10:10:12;99027.63;;;6.46;100.00
76694;BME280;69667;52.136;5.424;2024-02-23T10:12:59;99033.34;;;7.02;100.00
76694;BME280;69667;52.136;5.424;2024-02-23T10:15:32;99035.97;;;6.83;100.00
76694;BME280;69667;52.136;5.424;2024-02-23T10:18:02;99033.38;;;6.62;100.00
76694;BME280;69667;52.136;5.424;2024-02-23T10:20:31;99040.41;;;6.63;100.00
76694;BME280;69667;52.136;5.424;2024-02-23T10:23:01;99040.56;;;6.62;100.00
76694;BME280;69667;52.136;5.424;2024-02-23T10:25:30;99046.16;;;6.49;100.00
76694;BME280;69667;52.136;5.424;2024-02-23T10:28:02;99043.34;;;6.51;100.00
76694;BME280;69667;52.136;5.424;2024-02-23T10:30:33;99049.28;;;6.54;100.00
76694;BME280;69667;52.136;5.424;2024-02-23T10:33:05;99049.81;;;6.48;100.00
76694;BME280;69667;52.136;5.424;2024-02-23T10:35:43;99046.75;;;6.32;100.00
76694;BME280;69667;52.136;5.424;2024-02-23T10:38:17;99048.53;;;6.22;100.00
76694;BME280;69667;52.136;5.424;2024-02-23T10:40:50;99076.69;;;6.16;100.00
76694;BME280;69667;52.136;5.424;2024-02-23T10:43:41;99072.59;;;6.12;100.00
76694;BME280;69667;52.136;5.424;2024-02-23T10:46:13;99083.69;;;6.08;100.00
76694;BME280;69667;52.136;5.424;2024-02-23T10:48:44;99079.13;;;5.99;100.00
76694;BME280;69667;52.136;5.424;2024-02-23T10:51:18;99081.66;;;6.00;100.00
76694;BME280;69667;52.136;5.424;2024-02-23T10:53:53;99091.97;;;6.05;100.00
76694;BME280;69667;52.136;5.424;2024-02-23T10:59:19;99092.34;;;6.21;100.00
76694;BME280;69667;52.136;5.424;2024-02-23T11:01:54;99092.59;;;6.29;100.00
76694;BME280;69667;52.136;5.424;2024-02-23T11:04:32;99092.31;;;6.32;100.00
76694;BME280;69667;52.136;5.424;2024-02-23T11:07:02;99081.03;;;6.89;100.00
76694;BME280;69667;52.136;5.424;2024-02-23T11:09:36;99086.63;;;7.16;100.00
76694;BME280;69667;52.136;5.424;2024-02-23T11:12:05;99093.09;;;7.13;100.00
76694;BME280;69667;52.136;5.424;2024-02-23T11:14:37;99086.38;;;7.28;100.00
76694;BME280;69667;52.136;5.424;2024-02-23T11:17:06;99088.22;;;7.37;100.00
76694;BME280;69667;52.136;5.424;2024-02-23T11:19:39;99090.50;;;7.42;100.00
76694;BME280;69667;52.136;5.424;2024-02-23T11:22:09;99084.75;;;7.56;100.00
76694;BME280;69667;52.136;5.424;2024-02-23T11:25:11;99097.72;;;7.80;100.00
76694;BME280;69667;52.136;5.424;2024-02-23T11:27:54;99084.59;;;8.05;100.00
76694;BME280;69667;52.136;5.424;2024-02-23T11:30:23;99084.19;;;7.91;100.00
76694;BME280;69667;52.136;5.424;2024-02-23T11:32:59;99093.34;;;8.07;100.00
76694;BME280;69667;52.136;5.424;2024-02-23T11:35:33;99086.28;;;8.16;100.00
76694;BME280;69667;52.136;5.424;2024-02-23T11:38:03;99075.78;;;8.41;100.00
76694;BME280;69667;52.136;5.424;2024-02-23T11:40:35;99076.97;;;8.75;100.00
76694;BME280;69667;52.136;5.424;2024-02-23T11:43:04;99082.25;;;8.67;100.00
76694;BME280;69667;52.136;5.424;2024-02-23T11:46:03;99078.53;;;8.68;100.00
76694;BME280;69667;52.136;5.424;2024-02-23T11:49:07;99100.50;;;9.01;100.00
76694;BME280;69667;52.136;5.424;2024-02-23T11:51:36;99097.72;;;8.92;100.00
76694;BME280;69667;52.136;5.424;2024-02-23T11:54:06;99102.59;;;8.70;100.00
76694;BME280;69667;52.136;5.424;2024-02-23T11:56:34;99102.06;;;8.57;100.00
76694;BME280;69667;52.136;5.424;2024-02-23T11:59:09;99090.97;;;8.33;100.00
76694;BME280;69667;52.136;5.424;2024-02-23T12:01:39;99092.53;;;8.26;100.00
76694;BME280;69667;52.136;5.424;2024-02-23T12:04:09;99108.34;;;8.19;100.00
76694;BME280;69667;52.136;5.424;2024-02-23T12:06:49;99105.78;;;8.08;100.00
76694;BME280;69667;52.136;5.424;2024-02-23T12:09:18;99099.03;;;8.04;100.00
76694;BME280;69667;52.136;5.424;2024-02-23T12:11:46;99110.91;;;7.92;100.00
76694;BME280;69667;52.136;5.424;2024-02-23T12:14:24;99121.31;;;7.76;100.00
76694;BME280;69667;52.136;5.424;2024-02-23T12:16:57;99115.97;;;7.66;100.00
76694;BME280;69667;52.136;5.424;2024-02-23T12:19:26;99114.13;;;7.77;100.00
76694;BME280;69667;52.136;5.424;2024-02-23T12:21:55;99109.19;;;7.91;100.00
76694;BME280;69667;52.136;5.424;2024-02-23T12:24:29;99110.19;;;7.90;100.00
76694;BME280;69667;52.136;5.424;2024-02-23T12:27:06;99098.75;;;7.98;100.00
76694;BME280;69667;52.136;5.424;2024-02-23T12:29:39;99106.34;;;8.12;100.00
76694;BME280;69667;52.136;5.424;2024-02-23T12:32:08;99105.22;;;8.33;100.00
76694;BME280;69667;52.136;5.424;2024-02-23T12:34:39;99096.00;;;8.55;100.00
76694;BME280;69667;52.136;5.424;2024-02-23T12:37:17;99104.53;;;8.41;100.00
76694;BME280;69667;52.136;5.424;2024-02-23T12:39:45;99123.31;;;8.50;100.00
76694;BME280;69667;52.136;5.424;2024-02-23T12:42:14;99124.75;;;8.35;100.00
76694;BME280;69667;52.136;5.424;2024-02-23T12:44:44;99128.19;;;8.28;100.00
76694;BME280;69667;52.136;5.424;2024-02-23T12:47:14;99123.22;;;8.33;100.00
76694;BME280;69667;52.136;5.424;2024-02-23T12:50:29;99121.59;;;8.59;100.00
76694;BME280;69667;52.136;5.424;2024-02-23T12:53:01;99118.50;;;8.54;100.00
76694;BME280;69667;52.136;5.424;2024-02-23T12:55:31;99116.25;;;8.40;100.00
76694;BME280;69667;52.136;5.424;2024-02-23T12:58:01;99132.69;;;8.27;100.00
76694;BME280;69667;52.136;5.424;2024-02-23T13:00:30;99127.84;;;8.21;100.00
76694;BME280;69667;52.136;5.424;2024-02-23T13:03:08;99127.19;;;8.29;100.00
76694;BME280;69667;52.136;5.424;2024-02-23T13:05:38;99130.78;;;8.56;100.00
76694;BME280;69667;52.136;5.424;2024-02-23T13:08:08;99130.38;;;8.61;100.00
76694;BME280;69667;52.136;5.424;2024-02-23T13:10:40;99141.25;;;8.69;100.00
76694;BME280;69667;52.136;5.424;2024-02-23T13:13:10;99146.50;;;8.70;100.00
76694;BME280;69667;52.136;5.424;2024-02-23T13:15:41;99143.16;;;8.49;100.00
76694;BME280;69667;52.136;5.424;2024-02-23T13:18:10;99150.44;;;8.66;100.00
76694;BME280;69667;52.136;5.424;2024-02-23T13:20:41;99143.34;;;8.84;100.00
76694;BME280;69667;52.136;5.424;2024-02-23T13:23:11;99150.41;;;8.85;100.00
76694;BME280;69667;52.136;5.424;2024-02-23T13:25:41;99154.00;;;8.67;100.00
76694;BME280;69667;52.136;5.424;2024-02-23T13:28:10;99149.06;;;8.53;100.00
76694;BME280;69667;52.136;5.424;2024-02-23T13:30:40;99145.97;;;8.38;100.00